createdAt,value
2018-03-07T00:00:32.988Z,45.83
2018-03-07T00:03:01.337Z,46.83
2018-03-07T00:05:28.896Z,46.57
2018-03-07T00:07:56.461Z,52.40
2018-03-07T00:10:24.041Z,50.77
2018-03-07T00:12:51.629Z,50.20
2018-03-07T00:15:19.195Z,50.90
2018-03-07T00:17:46.783Z,51.10
2018-03-07T00:20:14.351Z,46.97
2018-03-07T00:22:41.940Z,49.90
2018-03-07T00:25:09.507Z,50.50
2018-03-07T00:27:37.830Z,51.30
2018-03-07T00:30:05.408Z,53.07
2018-03-07T00:32:32.956Z,50.03
2018-03-07T00:35:00.580Z,51.97
2018-03-07T00:37:28.158Z,49.10
2018-03-07T00:39:55.744Z,49.40
2018-03-07T00:42:23.328Z,51.67
2018-03-07T00:44:50.932Z,47.10
2018-03-07T00:47:18.510Z,48.17
2018-03-07T00:49:46.084Z,53.60
2018-03-07T00:52:13.688Z,53.03
2018-03-07T00:54:42.012Z,48.80
2018-03-07T00:57:09.593Z,50.73
2018-03-07T00:59:37.177Z,53.67
2018-03-07T01:02:04.758Z,53.37
2018-03-07T01:04:33.121Z,51.90
2018-03-07T01:07:01.487Z,49.80
2018-03-07T01:09:29.101Z,54.20
2018-03-07T01:11:56.652Z,49.73
2018-03-07T01:14:24.218Z,52.10
2018-03-07T01:16:51.798Z,47.57
2018-03-07T01:19:19.357Z,50.13
2018-03-07T01:21:46.949Z,55.00
2018-03-07T01:24:14.506Z,50.37
2018-03-07T01:26:42.064Z,52.67
2018-03-07T01:29:09.652Z,52.50
2018-03-07T01:31:37.976Z,47.83
2018-03-07T01:34:05.572Z,50.10
2018-03-07T01:36:33.148Z,49.40
2018-03-07T01:39:01.465Z,53.33
2018-03-07T01:41:29.043Z,46.40
2018-03-07T01:43:56.629Z,46.03
2018-03-07T01:46:24.184Z,53.67
2018-03-07T01:48:51.732Z,50.57
2018-03-07T01:51:19.307Z,53.80
2018-03-07T01:53:46.883Z,51.93
2018-03-07T01:56:15.244Z,53.47
2018-03-07T01:58:42.804Z,52.80
2018-03-07T02:01:10.388Z,53.20
2018-03-07T02:03:38.709Z,54.60
2018-03-07T02:06:06.264Z,51.20
2018-03-07T02:08:33.852Z,54.53
2018-03-07T02:11:01.409Z,53.80
2018-03-07T02:13:28.988Z,54.37
2018-03-07T02:15:57.313Z,53.87
2018-03-07T02:18:24.898Z,54.70
2018-03-07T02:20:52.501Z,56.10
2018-03-07T02:23:20.816Z,58.37
2018-03-07T02:25:48.378Z,59.03
2018-03-07T02:28:15.949Z,50.97
2018-03-07T02:30:43.535Z,53.43
2018-03-07T02:33:11.123Z,56.77
2018-03-07T02:35:38.774Z,57.30
2018-03-07T02:38:07.129Z,59.00
2018-03-07T02:40:34.690Z,58.50
2018-03-07T02:43:02.273Z,53.47
2018-03-07T02:45:30.589Z,53.50
2018-03-07T02:47:58.172Z,57.80
2018-03-07T02:50:26.550Z,54.07
2018-03-07T02:52:54.105Z,58.57
2018-03-07T02:55:21.698Z,57.33
2018-03-07T02:57:49.252Z,55.00
2018-03-07T03:00:16.805Z,57.87
2018-03-07T03:02:45.174Z,55.10
2018-03-07T03:05:12.756Z,55.23
2018-03-07T03:07:41.088Z,57.33
2018-03-07T03:10:08.676Z,60.00
2018-03-07T03:12:36.248Z,56.67
2018-03-07T03:15:03.798Z,61.40
2018-03-07T03:17:31.385Z,59.53
2018-03-07T03:19:59.708Z,61.93
2018-03-07T03:22:27.309Z,54.73
2018-03-07T03:24:54.859Z,54.40
2018-03-07T03:27:23.212Z,56.80
2018-03-07T03:29:50.820Z,60.17
2018-03-07T03:32:19.137Z,58.17
2018-03-07T03:34:46.717Z,57.43
2018-03-07T03:37:14.308Z,54.50
2018-03-07T03:39:42.632Z,52.87
2018-03-07T03:42:10.210Z,54.57
2018-03-07T03:44:37.764Z,54.00
2018-03-07T03:47:05.418Z,56.63
2018-03-07T03:49:32.976Z,57.47
2018-03-07T03:52:00.562Z,59.40
2018-03-07T03:54:28.123Z,52.00
2018-03-07T03:56:55.699Z,55.07
2018-03-07T03:59:23.260Z,54.60
2018-03-07T04:01:51.644Z,50.90
2018-03-07T04:04:19.224Z,54.00
2018-03-07T04:06:47.544Z,54.27
2018-03-07T04:09:15.122Z,55.37
2018-03-07T04:11:42.683Z,53.17
2018-03-07T04:14:10.420Z,55.97
2018-03-07T04:16:37.984Z,52.60
2018-03-07T04:19:05.556Z,54.80
2018-03-07T04:21:33.133Z,54.73
2018-03-07T04:24:00.700Z,54.33
2018-03-07T04:26:28.272Z,48.50
2018-03-07T04:28:56.588Z,54.83
2018-03-07T04:31:24.160Z,50.00
2018-03-07T04:33:51.760Z,50.10
2018-03-07T04:36:19.344Z,51.70
2018-03-07T04:38:47.738Z,50.97
2018-03-07T04:41:16.035Z,52.43
2018-03-07T04:43:43.588Z,51.17
2018-03-07T04:46:11.176Z,53.40
2018-03-07T04:48:38.730Z,51.17
2018-03-07T04:51:06.296Z,50.10
2018-03-07T04:53:33.868Z,51.10
2018-03-07T04:56:01.448Z,53.60
2018-03-07T04:58:29.766Z,51.87
2018-03-07T05:00:57.322Z,48.60
2018-03-07T05:03:24.904Z,51.00
2018-03-07T05:05:52.461Z,44.70
2018-03-07T05:08:20.032Z,44.63
2018-03-07T05:10:47.599Z,44.87
2018-03-07T05:13:15.198Z,47.90
2018-03-07T05:15:42.801Z,46.53
2018-03-07T05:18:10.361Z,47.50
2018-03-07T05:20:38.036Z,47.40
2018-03-07T05:23:05.612Z,43.77
2018-03-07T05:25:33.174Z,48.77
2018-03-07T05:28:00.757Z,49.70
2018-03-07T05:30:28.317Z,50.00
2018-03-07T05:32:56.651Z,47.23
2018-03-07T05:35:24.212Z,47.60
2018-03-07T05:37:51.766Z,51.60
2018-03-07T05:40:19.341Z,46.47
2018-03-07T05:42:46.899Z,49.27
2018-03-07T05:45:14.457Z,50.07
2018-03-07T05:47:42.033Z,44.23
2018-03-07T05:50:09.584Z,46.17
2018-03-07T05:52:37.172Z,46.60
2018-03-07T05:55:05.496Z,52.60
2018-03-07T05:57:33.066Z,51.60
2018-03-07T06:00:00.644Z,51.40
2018-03-07T06:02:28.229Z,51.37
2018-03-07T06:04:56.550Z,50.47
2018-03-07T06:07:24.132Z,53.50
2018-03-07T06:09:51.761Z,51.87
2018-03-07T06:12:19.306Z,52.13
2018-03-07T06:14:46.877Z,54.47
2018-03-07T06:17:14.466Z,49.23
2018-03-07T06:19:42.027Z,47.63
2018-03-07T06:22:09.599Z,49.97
2018-03-07T06:24:37.183Z,49.03
2018-03-07T06:27:05.533Z,47.30
2018-03-07T06:29:33.959Z,47.60
2018-03-07T06:32:01.513Z,49.10
2018-03-07T06:34:29.092Z,48.10
2018-03-07T06:36:56.681Z,49.60
2018-03-07T06:39:24.232Z,48.80
2018-03-07T06:41:51.796Z,46.33
2018-03-07T06:44:20.152Z,49.07
2018-03-07T06:46:47.705Z,48.80
2018-03-07T06:49:15.312Z,45.27
2018-03-07T06:51:42.864Z,47.43
2018-03-07T06:54:10.415Z,45.67
2018-03-07T06:56:37.997Z,47.47
2018-03-07T06:59:05.547Z,48.50
2018-03-07T07:01:33.120Z,45.40
2018-03-07T07:04:00.681Z,45.57
2018-03-07T07:06:29.086Z,44.60
2018-03-07T07:08:56.659Z,46.87
2018-03-07T07:11:24.216Z,45.70
2018-03-07T07:13:51.792Z,46.07
2018-03-07T07:16:19.397Z,43.30
2018-03-07T07:18:47.030Z,45.13
2018-03-07T07:21:14.610Z,45.00
2018-03-07T07:23:42.165Z,41.43
2018-03-07T07:26:09.740Z,43.97
2018-03-07T07:28:37.314Z,44.90
2018-03-07T07:31:04.904Z,40.30
2018-03-07T07:33:32.496Z,42.80
2018-03-07T07:36:00.069Z,44.43
2018-03-07T07:38:27.641Z,44.40
2018-03-07T07:40:55.221Z,44.13
2018-03-07T07:43:23.614Z,42.53
2018-03-07T07:45:51.922Z,45.73
2018-03-07T07:48:19.507Z,43.70
2018-03-07T07:50:47.098Z,44.47
2018-03-07T07:53:15.439Z,37.50
2018-03-07T07:55:43.044Z,40.87
2018-03-07T07:58:11.360Z,42.20
2018-03-07T08:00:38.931Z,43.70
2018-03-07T08:03:07.283Z,41.67
2018-03-07T08:05:34.845Z,41.33
2018-03-07T08:08:02.429Z,41.77
2018-03-07T08:10:29.992Z,37.47
2018-03-07T08:12:57.597Z,41.17
2018-03-07T08:15:25.930Z,39.20
2018-03-07T08:17:53.496Z,38.70
2018-03-07T08:20:21.083Z,36.17
2018-03-07T08:22:49.401Z,35.60
2018-03-07T08:25:16.984Z,38.20
2018-03-07T08:27:44.587Z,39.00
2018-03-07T08:30:12.153Z,38.03
2018-03-07T08:32:40.477Z,35.77
2018-03-07T08:35:08.050Z,39.23
2018-03-07T08:37:35.630Z,37.57
2018-03-07T08:40:03.190Z,40.53
2018-03-07T08:42:30.769Z,40.13
2018-03-07T08:44:59.086Z,40.70
2018-03-07T08:47:27.424Z,38.47
2018-03-07T08:49:56.282Z,39.30
2018-03-07T08:52:23.833Z,40.73
2018-03-07T08:54:51.445Z,38.30
2018-03-07T08:57:19.832Z,38.60
2018-03-07T08:59:47.388Z,40.00
2018-03-07T09:02:14.946Z,39.00
2018-03-07T09:04:42.519Z,40.47
2018-03-07T09:07:10.072Z,41.00
2018-03-07T09:09:37.656Z,42.27
2018-03-07T09:12:05.226Z,41.93
2018-03-07T09:14:32.792Z,42.63
2018-03-07T09:17:00.373Z,44.93
2018-03-07T09:19:27.956Z,45.77
2018-03-07T09:21:56.282Z,44.20
2018-03-07T09:24:23.888Z,42.27
2018-03-07T09:26:52.218Z,43.43
2018-03-07T09:29:19.802Z,43.23
2018-03-07T09:31:47.376Z,43.83
2018-03-07T09:34:14.941Z,40.47
2018-03-07T09:36:43.285Z,41.00
2018-03-07T09:39:10.844Z,39.83
2018-03-07T09:41:38.435Z,41.87
2018-03-07T09:44:06.082Z,39.60
2018-03-07T09:46:33.645Z,41.10
2018-03-07T09:49:01.236Z,40.23
2018-03-07T09:51:28.820Z,38.67
2018-03-07T09:53:56.406Z,39.30
2018-03-07T09:56:24.030Z,39.83
2018-03-07T09:58:52.333Z,37.70
2018-03-07T10:01:19.923Z,37.00
2018-03-07T10:03:47.520Z,37.10
2018-03-07T10:06:15.083Z,37.60
2018-03-07T10:08:42.684Z,34.97
2018-03-07T10:11:10.249Z,34.40
2018-03-07T10:13:37.810Z,32.97
2018-03-07T10:16:05.399Z,30.20
2018-03-07T10:18:33.751Z,29.10
2018-03-07T10:21:01.309Z,36.30
2018-03-07T10:23:29.651Z,36.73
2018-03-07T10:25:57.233Z,35.83
2018-03-07T10:28:24.813Z,34.47
2018-03-07T10:30:52.417Z,34.60
2018-03-07T10:33:26.780Z,34.57
2018-03-07T10:35:54.370Z,32.40
2018-03-07T10:38:22.700Z,34.30
2018-03-07T10:40:50.287Z,34.37
2018-03-07T10:43:17.841Z,33.37
2018-03-07T10:45:45.397Z,33.83
2018-03-07T10:48:13.000Z,34.50
2018-03-07T10:50:41.320Z,32.70
2018-03-07T10:53:08.871Z,33.50
2018-03-07T10:55:36.506Z,32.33
2018-03-07T10:58:04.094Z,31.30
2018-03-07T11:00:37.228Z,32.63
2018-03-07T11:03:05.177Z,30.83
2018-03-07T11:05:32.791Z,26.90
2018-03-07T11:08:00.352Z,25.10
2018-03-07T11:10:27.944Z,26.67
2018-03-07T11:12:55.509Z,25.90
2018-03-07T11:15:23.089Z,25.50
2018-03-07T11:17:50.646Z,27.33
2018-03-07T11:20:18.345Z,24.90
2018-03-07T11:22:46.683Z,30.27
2018-03-07T11:25:14.289Z,31.63
2018-03-07T11:27:42.618Z,33.87
2018-03-07T11:30:10.201Z,33.37
2018-03-07T11:32:37.840Z,34.50
2018-03-07T11:35:05.397Z,35.97
2018-03-07T11:37:32.972Z,36.60
2018-03-07T11:40:00.550Z,39.63
2018-03-07T11:42:28.112Z,37.10
2018-03-07T11:44:55.680Z,38.27
2018-03-07T11:47:24.009Z,37.03
2018-03-07T11:49:51.596Z,36.80
2018-03-07T11:52:19.179Z,32.90
2018-03-07T11:54:47.517Z,34.50
2018-03-07T11:57:15.116Z,32.47
2018-03-07T11:59:43.436Z,34.80
2018-03-07T12:02:11.008Z,33.60
2018-03-07T12:04:38.599Z,32.27
2018-03-07T12:07:06.184Z,29.93
2018-03-07T12:09:34.509Z,28.73
2018-03-07T12:12:02.056Z,28.70
2018-03-07T12:14:29.629Z,28.27
2018-03-07T12:16:57.184Z,29.33
2018-03-07T12:19:24.784Z,29.60
2018-03-07T12:21:52.340Z,28.97
2018-03-07T12:24:19.895Z,30.10
2018-03-07T12:26:47.477Z,28.43
2018-03-07T12:29:15.832Z,27.27
2018-03-07T12:31:43.498Z,33.00
2018-03-07T12:34:11.033Z,27.63
2018-03-07T12:36:38.593Z,24.77
2018-03-07T12:39:06.180Z,25.97
2018-03-07T12:41:33.756Z,25.97
2018-03-07T12:44:02.122Z,24.30
2018-03-07T12:46:30.461Z,26.73
2018-03-07T12:48:58.021Z,26.97
2018-03-07T12:51:25.592Z,26.30
2018-03-07T12:53:53.169Z,27.57
2018-03-07T12:56:20.752Z,27.40
2018-03-07T12:58:49.077Z,27.23
2018-03-07T13:01:16.638Z,28.40
2018-03-07T13:03:44.216Z,28.20
2018-03-07T13:06:11.793Z,27.27
2018-03-07T13:08:39.357Z,26.30
2018-03-07T13:11:07.762Z,25.13
2018-03-07T13:13:35.375Z,25.50
2018-03-07T13:16:02.949Z,28.20
2018-03-07T13:18:30.505Z,29.53
2018-03-07T13:20:58.086Z,26.50
2018-03-07T13:23:26.416Z,28.90
2018-03-07T13:25:53.998Z,27.63
2018-03-07T13:28:21.564Z,30.00
2018-03-07T13:30:49.150Z,32.40
2018-03-07T13:33:17.493Z,33.43
2018-03-07T13:35:45.841Z,32.67
2018-03-07T13:38:13.417Z,33.03
2018-03-07T13:40:40.972Z,33.37
2018-03-07T13:43:08.579Z,36.90
2018-03-07T13:45:36.932Z,35.10
2018-03-07T13:48:04.501Z,35.70
2018-03-07T13:50:32.081Z,35.60
2018-03-07T13:53:00.429Z,36.33
2018-03-07T13:55:28.025Z,36.80
2018-03-07T13:57:55.596Z,37.37
2018-03-07T14:00:23.180Z,35.27
2018-03-07T14:02:50.783Z,37.40
2018-03-07T14:05:18.386Z,39.30
2018-03-07T14:07:45.924Z,37.30
2018-03-07T14:10:13.516Z,38.60
2018-03-07T14:12:41.076Z,36.97
2018-03-07T14:15:08.657Z,42.20
2018-03-07T14:17:36.238Z,44.33
2018-03-07T14:20:03.821Z,42.10
2018-03-07T14:22:32.161Z,41.80
2018-03-07T14:24:59.806Z,42.87
2018-03-07T14:27:27.371Z,44.90
2018-03-07T14:29:54.940Z,46.30
2018-03-07T14:32:22.536Z,44.67
2018-03-07T14:34:50.858Z,46.80
2018-03-07T14:37:18.424Z,49.03
2018-03-07T14:39:45.992Z,48.97
2018-03-07T14:42:13.600Z,54.30
2018-03-07T14:44:41.169Z,50.67
2018-03-07T14:47:08.768Z,51.00
2018-03-07T14:49:36.419Z,53.47
2018-03-07T14:52:03.965Z,53.60
2018-03-07T14:54:31.563Z,57.70
2018-03-07T14:56:59.175Z,56.03
2018-03-07T14:59:26.736Z,53.17
2018-03-07T15:01:54.311Z,52.40
2018-03-07T15:04:21.898Z,55.97
2018-03-07T15:06:49.465Z,52.83
2018-03-07T15:09:17.061Z,53.50
2018-03-07T15:11:45.385Z,56.53
2018-03-07T15:14:12.945Z,59.43
2018-03-07T15:16:40.524Z,59.67
2018-03-07T15:19:08.094Z,61.50
2018-03-07T15:21:35.672Z,57.83
2018-03-07T15:24:04.017Z,61.40
2018-03-07T15:26:31.576Z,60.10
2018-03-07T15:28:59.159Z,61.03
2018-03-07T15:31:26.733Z,58.07
2018-03-07T15:33:55.062Z,58.10
2018-03-07T15:36:22.669Z,61.90
2018-03-07T15:38:51.000Z,65.00
2018-03-07T15:41:18.580Z,60.10
2018-03-07T15:43:46.154Z,61.83
2018-03-07T15:46:13.716Z,62.30
2018-03-07T15:48:42.073Z,60.37
2018-03-07T15:51:09.657Z,64.83
2018-03-07T15:53:37.282Z,64.50
2018-03-07T15:56:04.896Z,66.00
2018-03-07T15:58:33.251Z,61.20
2018-03-07T16:01:00.810Z,58.37
2018-03-07T16:03:28.390Z,57.73
2018-03-07T16:05:56.713Z,60.27
2018-03-07T16:08:24.297Z,56.83
2018-03-07T16:10:51.862Z,59.40
2018-03-07T16:13:19.419Z,57.80
2018-03-07T16:15:47.004Z,59.80
2018-03-07T16:18:15.335Z,57.37
2018-03-07T16:20:42.920Z,57.17
2018-03-07T16:23:10.484Z,58.90
2018-03-07T16:25:38.040Z,59.40
2018-03-07T16:28:05.629Z,62.67
2018-03-07T16:30:33.957Z,66.90
2018-03-07T16:33:01.511Z,66.40
2018-03-07T16:35:29.105Z,65.43
2018-03-07T16:37:56.692Z,69.13
2018-03-07T16:40:24.253Z,64.30
2018-03-07T16:42:51.848Z,69.00
2018-03-07T16:45:19.425Z,70.10
2018-03-07T16:47:47.016Z,67.67
2018-03-07T16:50:14.573Z,69.97
2018-03-07T16:52:42.155Z,66.47
2018-03-07T16:55:09.750Z,70.53
2018-03-07T16:57:37.309Z,69.97
2018-03-07T17:00:04.903Z,70.30
2018-03-07T17:02:32.457Z,70.00
2018-03-07T17:05:00.025Z,71.47
2018-03-07T17:07:27.616Z,73.23
2018-03-07T17:09:55.943Z,67.60
2018-03-07T17:12:23.544Z,69.33
2018-03-07T17:14:51.876Z,72.80
2018-03-07T17:17:19.437Z,70.03
2018-03-07T17:19:47.021Z,69.73
2018-03-07T17:22:14.585Z,78.80
2018-03-07T17:24:42.196Z,70.50
2018-03-07T17:27:09.765Z,73.77
2018-03-07T17:29:37.378Z,70.90
2018-03-07T17:32:05.724Z,72.80
2018-03-07T17:34:33.304Z,72.80
2018-03-07T17:37:00.908Z,67.80
2018-03-07T17:39:28.492Z,67.30
2018-03-07T17:41:56.069Z,68.40
2018-03-07T17:44:23.657Z,68.50
2018-03-07T17:46:51.980Z,67.40
2018-03-07T17:49:19.584Z,64.00
2018-03-07T17:51:47.144Z,71.07
2018-03-07T17:54:14.739Z,67.33
2018-03-07T17:56:42.304Z,65.80
2018-03-07T17:59:09.880Z,67.30
2018-03-07T18:01:37.464Z,67.17
2018-03-07T18:04:05.040Z,67.57
2018-03-07T18:06:32.632Z,67.23
2018-03-07T18:09:00.220Z,64.70
2018-03-07T18:11:27.784Z,65.60
2018-03-07T18:13:55.341Z,64.17
2018-03-07T18:16:22.955Z,64.07
2018-03-07T18:18:51.337Z,63.90
2018-03-07T18:21:19.694Z,66.20
2018-03-07T18:23:47.272Z,63.60
2018-03-07T18:26:14.864Z,67.50
2018-03-07T18:28:42.444Z,63.37
2018-03-07T18:31:10.029Z,68.80
2018-03-07T18:33:37.592Z,66.53
2018-03-07T18:36:05.149Z,67.70
2018-03-07T18:38:32.722Z,58.30
2018-03-07T18:41:00.300Z,61.63
2018-03-07T18:43:28.628Z,63.30
2018-03-07T18:45:56.209Z,63.87
2018-03-07T18:48:24.533Z,56.23
2018-03-07T18:50:52.160Z,60.90
2018-03-07T18:53:19.752Z,60.17
2018-03-07T18:55:47.332Z,59.97
2018-03-07T18:58:14.930Z,59.93
2018-03-07T19:00:42.493Z,60.37
2018-03-07T19:03:10.083Z,57.83
2018-03-07T19:05:38.492Z,62.20
2018-03-07T19:08:06.045Z,58.73
2018-03-07T19:10:33.640Z,56.07
2018-03-07T19:13:01.213Z,57.87
2018-03-07T19:15:28.800Z,60.03
2018-03-07T19:17:57.177Z,58.80
2018-03-07T19:20:25.523Z,61.20
2018-03-07T19:22:53.159Z,60.00
2018-03-07T19:25:20.714Z,59.20
2018-03-07T19:27:48.305Z,61.57
2018-03-07T19:30:15.884Z,64.20
2018-03-07T19:32:43.491Z,64.03
2018-03-07T19:35:11.066Z,60.90
2018-03-07T19:37:38.650Z,60.50
2018-03-07T19:40:06.260Z,58.60
2018-03-07T19:42:33.851Z,65.00
2018-03-07T19:45:01.410Z,62.60
2018-03-07T19:47:29.018Z,61.37
2018-03-07T19:49:57.343Z,58.60
2018-03-07T19:52:24.908Z,63.77
2018-03-07T19:54:52.490Z,62.40
2018-03-07T19:57:20.053Z,61.77
2018-03-07T19:59:47.645Z,65.37
2018-03-07T20:02:15.988Z,61.30
2018-03-07T20:04:43.575Z,58.00
2018-03-07T20:07:11.196Z,61.57
2018-03-07T20:09:38.772Z,67.67
2018-03-07T20:12:06.345Z,66.67
2018-03-07T20:14:34.697Z,57.93
2018-03-07T20:17:02.338Z,63.30
2018-03-07T20:19:29.926Z,58.63
2018-03-07T20:21:57.530Z,60.00
2018-03-07T20:24:25.096Z,58.63
2018-03-07T20:26:52.659Z,59.77
2018-03-07T20:29:20.245Z,68.63
2018-03-07T20:31:47.797Z,59.40
2018-03-07T20:34:15.525Z,62.67
2018-03-07T20:36:43.853Z,57.30
2018-03-07T20:39:11.431Z,53.80
2018-03-07T20:41:38.987Z,55.50
2018-03-07T20:44:06.568Z,59.83
2018-03-07T20:46:34.144Z,55.47
2018-03-07T20:49:01.733Z,67.10
2018-03-07T20:51:29.298Z,66.00
2018-03-07T20:53:56.963Z,63.60
2018-03-07T20:56:24.584Z,62.97
2018-03-07T20:58:52.908Z,65.70
2018-03-07T21:01:20.471Z,65.87
2018-03-07T21:03:48.048Z,64.57
2018-03-07T21:06:15.602Z,62.87
2018-03-07T21:08:43.176Z,60.50
2018-03-07T21:11:10.761Z,62.23
2018-03-07T21:13:39.091Z,59.77
2018-03-07T21:16:06.665Z,60.30
2018-03-07T21:18:34.274Z,59.90
2018-03-07T21:21:01.832Z,58.33
2018-03-07T21:23:29.429Z,60.87
2018-03-07T21:25:57.009Z,58.63
2018-03-07T21:28:24.570Z,61.87
2018-03-07T21:30:52.156Z,58.37
2018-03-07T21:33:20.484Z,62.83
2018-03-07T21:35:48.048Z,57.80
2018-03-07T21:38:15.633Z,62.43
2018-03-07T21:40:43.300Z,65.87
2018-03-07T21:43:10.861Z,60.30
2018-03-07T21:45:38.467Z,64.07
2018-03-07T21:48:06.040Z,59.93
2018-03-07T21:50:33.649Z,58.30
2018-03-07T21:53:01.228Z,57.77
2018-03-07T21:55:28.863Z,65.67
2018-03-07T21:57:56.505Z,65.63
2018-03-07T22:00:24.077Z,69.17
2018-03-07T22:02:51.649Z,61.17
2018-03-07T22:05:19.226Z,66.00
2018-03-07T22:07:47.565Z,59.27
2018-03-07T22:10:15.145Z,62.63
2018-03-07T22:12:42.727Z,64.83
2018-03-07T22:15:11.084Z,60.10
2018-03-07T22:17:38.636Z,59.40
2018-03-07T22:20:06.216Z,63.40
2018-03-07T22:22:34.575Z,66.70
2018-03-07T22:25:02.132Z,64.93
2018-03-07T22:27:29.701Z,65.40
2018-03-07T22:29:58.060Z,65.60
2018-03-07T22:32:25.641Z,60.90
2018-03-07T22:34:53.220Z,61.63
2018-03-07T22:37:21.548Z,64.23
2018-03-07T22:39:49.156Z,61.13
2018-03-07T22:42:17.517Z,64.87
2018-03-07T22:44:45.077Z,61.30
2018-03-07T22:47:12.654Z,62.00
2018-03-07T22:49:40.985Z,61.27
2018-03-07T22:52:08.555Z,59.70
2018-03-07T22:54:36.126Z,57.47
2018-03-07T22:57:03.700Z,60.27
2018-03-07T22:59:31.254Z,59.50
2018-03-07T23:01:58.832Z,60.10
2018-03-07T23:04:27.155Z,57.37
2018-03-07T23:06:54.770Z,59.80
2018-03-07T23:09:23.114Z,64.00
2018-03-07T23:11:50.689Z,60.50
2018-03-07T23:14:18.268Z,62.87
2018-03-07T23:16:46.611Z,65.90
2018-03-07T23:19:14.169Z,59.50
2018-03-07T23:21:41.746Z,58.10
2018-03-07T23:24:09.305Z,60.40
2018-03-07T23:26:36.880Z,64.83
2018-03-07T23:29:05.201Z,65.23
2018-03-07T23:31:32.789Z,67.50
2018-03-07T23:34:00.365Z,64.00
2018-03-07T23:36:27.927Z,71.73
2018-03-07T23:38:55.509Z,62.37
2018-03-07T23:41:23.852Z,60.67
2018-03-07T23:43:51.432Z,70.60
2018-03-07T23:46:19.753Z,66.17
2018-03-07T23:48:47.307Z,64.17
2018-03-07T23:51:14.888Z,68.90
2018-03-07T23:53:42.470Z,69.63
2018-03-07T23:56:10.047Z,69.37
2018-03-07T23:58:37.615Z,73.97
